In Rescue
 
Open Full Screen Window  High Contrast Mode
Wind Gusting 00 knots
11
March 01, 2024 3:23 PM CST
Weather Information
Wind Direction
  180 °
Wind Speed
  11 kt (13 mph)
Wind Gust
  00 kt (0 mph)
Altimeter
29.68 in
Visibility
10 SM
Temperature
13° C
55° F
Dewpoint
-01° C
30° F
Humidity
38%
Sky Condition
Clear
VFR

METAR KSAZ 012123Z AUTO 18011KT 10SM CLR 13/M01 A2968 RMK AO2

FAA Disclaimer: The data displayed is for advisory purposes only and is not to be used for flight planning or operations.